sensor_id;sensor_type;location;lat;lon;timestamp;temperature;humidity
5258;DHT22;2651;51.594;9.928;2023-05-10T00:00:36;16.00;99.90
5258;DHT22;2651;51.594;9.928;2023-05-10T00:01:38;16.00;99.90
5258;DHT22;2651;51.594;9.928;2023-05-10T00:02:40;16.00;99.90
5258;DHT22;2651;51.594;9.928;2023-05-10T00:03:42;15.90;99.90
5258;DHT22;2651;51.594;9.928;2023-05-10T00:04:43;15.90;99.90
5258;DHT22;2651;51.594;9.928;2023-05-10T00:05:45;15.90;99.90
5258;DHT22;2651;51.594;9.928;2023-05-10T00:06:47;15.80;99.90
5258;DHT22;2651;51.594;9.928;2023-05-10T00:07:48;15.80;99.90
5258;DHT22;2651;51.594;9.928;2023-05-10T00:08:50;15.80;99.90
5258;DHT22;2651;51.594;9.928;2023-05-10T00:09:52;15.70;99.90
5258;DHT22;2651;51.594;9.928;2023-05-10T00:10:53;15.70;99.90
5258;DHT22;2651;51.594;9.928;2023-05-10T00:11:55;15.70;99.90
5258;DHT22;2651;51.594;9.928;2023-05-10T00:12:59;15.70;99.90
5258;DHT22;2651;51.594;9.928;2023-05-10T00:14:01;15.80;99.90
5258;DHT22;2651;51.594;9.928;2023-05-10T00:15:03;15.70;99.90
5258;DHT22;2651;51.594;9.928;2023-05-10T00:16:05;15.70;99.90
5258;DHT22;2651;51.594;9.928;2023-05-10T00:17:07;15.70;99.90
5258;DHT22;2651;51.594;9.928;2023-05-10T00:18:08;15.70;99.90
5258;DHT22;2651;51.594;9.928;2023-05-10T00:19:10;15.70;99.90
5258;DHT22;2651;51.594;9.928;2023-05-10T00:20:12;15.70;99.90
5258;DHT22;2651;51.594;9.928;2023-05-10T00:21:14;15.60;99.90
5258;DHT22;2651;51.594;9.928;2023-05-10T00:22:16;15.60;99.90
5258;DHT22;2651;51.594;9.928;2023-05-10T00:23:17;15.60;99.90
5258;DHT22;2651;51.594;9.928;2023-05-10T00:24:19;15.50;99.90
5258;DHT22;2651;51.594;9.928;2023-05-10T00:25:21;15.40;99.90
5258;DHT22;2651;51.594;9.928;2023-05-10T00:26:25;15.40;99.90
5258;DHT22;2651;51.594;9.928;2023-05-10T00:27:27;15.40;99.90
5258;DHT22;2651;51.594;9.928;2023-05-10T00:28:28;15.30;99.90
5258;DHT22;2651;51.594;9.928;2023-05-10T00:29:30;15.30;99.90
5258;DHT22;2651;51.594;9.928;2023-05-10T00:30:33;15.20;99.90
5258;DHT22;2651;51.594;9.928;2023-05-10T00:31:34;15.20;99.90
5258;DHT22;2651;51.594;9.928;2023-05-10T00:32:36;15.20;99.90
5258;DHT22;2651;51.594;9.928;2023-05-10T00:33:38;15.20;99.90
5258;DHT22;2651;51.594;9.928;2023-05-10T00:34:39;15.20;99.90
5258;DHT22;2651;51.594;9.928;2023-05-10T00:35:41;15.30;99.90
5258;DHT22;2651;51.594;9.928;2023-05-10T00:36:43;15.30;99.90
5258;DHT22;2651;51.594;9.928;2023-05-10T00:37:44;15.30;99.90
5258;DHT22;2651;51.594;9.928;2023-05-10T00:38:46;15.30;99.90
5258;DHT22;2651;51.594;9.928;2023-05-10T00:39:48;15.30;99.90
5258;DHT22;2651;51.594;9.928;2023-05-10T00:40:49;15.30;99.90
5258;DHT22;2651;51.594;9.928;2023-05-10T00:41:51;15.30;99.90
5258;DHT22;2651;51.594;9.928;2023-05-10T00:42:52;15.30;99.90
5258;DHT22;2651;51.594;9.928;2023-05-10T00:43:54;15.30;99.90
5258;DHT22;2651;51.594;9.928;2023-05-10T00:44:56;15.30;99.90
5258;DHT22;2651;51.594;9.928;2023-05-10T00:45:57;15.30;99.90
5258;DHT22;2651;51.594;9.928;2023-05-10T00:46:59;15.30;99.90
5258;DHT22;2651;51.594;9.928;2023-05-10T00:48:02;15.30;99.90
5258;DHT22;2651;51.594;9.928;2023-05-10T00:49:05;15.30;99.90
5258;DHT22;2651;51.594;9.928;2023-05-10T00:50:07;15.30;99.90
5258;DHT22;2651;51.594;9.928;2023-05-10T00:51:10;15.40;99.90
5258;DHT22;2651;51.594;9.928;2023-05-10T00:52:12;15.40;99.90
5258;DHT22;2651;51.594;9.928;2023-05-10T00:53:14;15.40;99.90
5258;DHT22;2651;51.594;9.928;2023-05-10T00:54:16;15.30;99.90
5258;DHT22;2651;51.594;9.928;2023-05-10T00:55:18;15.30;99.90
5258;DHT22;2651;51.594;9.928;2023-05-10T00:56:20;15.30;99.90
5258;DHT22;2651;51.594;9.928;2023-05-10T00:57:24;15.30;99.90
5258;DHT22;2651;51.594;9.928;2023-05-10T00:58:27;15.30;99.90
5258;DHT22;2651;51.594;9.928;2023-05-10T00:59:29;15.30;1.00
5258;DHT22;2651;51.594;9.928;2023-05-10T01:00:32;15.30;1.00
5258;DHT22;2651;51.594;9.928;2023-05-10T01:01:35;15.30;1.00
5258;DHT22;2651;51.594;9.928;2023-05-10T01:02:38;15.30;99.90
5258;DHT22;2651;51.594;9.928;2023-05-10T01:03:40;15.30;1.00
5258;DHT22;2651;51.594;9.928;2023-05-10T01:04:43;15.40;1.00
5258;DHT22;2651;51.594;9.928;2023-05-10T01:05:44;15.30;1.00
5258;DHT22;2651;51.594;9.928;2023-05-10T01:06:46;15.30;1.00
5258;DHT22;2651;51.594;9.928;2023-05-10T01:07:47;15.30;1.00
5258;DHT22;2651;51.594;9.928;2023-05-10T01:08:49;15.30;1.00
5258;DHT22;2651;51.594;9.928;2023-05-10T01:09:51;15.30;1.00
5258;DHT22;2651;51.594;9.928;2023-05-10T01:10:53;15.40;1.00
5258;DHT22;2651;51.594;9.928;2023-05-10T01:11:56;15.30;1.00
5258;DHT22;2651;51.594;9.928;2023-05-10T01:12:59;15.30;1.00
5258;DHT22;2651;51.594;9.928;2023-05-10T01:14:01;15.30;1.00
5258;DHT22;2651;51.594;9.928;2023-05-10T01:15:05;15.30;1.00
5258;DHT22;2651;51.594;9.928;2023-05-10T01:16:08;15.30;1.00
5258;DHT22;2651;51.594;9.928;2023-05-10T01:17:10;15.40;1.00
5258;DHT22;2651;51.594;9.928;2023-05-10T01:18:12;15.30;1.00
5258;DHT22;2651;51.594;9.928;2023-05-10T01:19:26;15.40;1.00
5258;DHT22;2651;51.594;9.928;2023-05-10T01:20:35;15.30;1.00
5258;DHT22;2651;51.594;9.928;2023-05-10T01:21:53;15.30;1.00
5258;DHT22;2651;51.594;9.928;2023-05-10T01:24:57;15.10;1.00
5258;DHT22;2651;51.594;9.928;2023-05-10T01:26:24;15.10;1.00
5258;DHT22;2651;51.594;9.928;2023-05-10T01:28:03;15.00;1.00
5258;DHT22;2651;51.594;9.928;2023-05-10T01:30:46;15.00;1.00
5258;DHT22;2651;51.594;9.928;2023-05-10T01:34:19;15.00;1.00
5258;DHT22;2651;51.594;9.928;2023-05-10T01:35:26;14.90;1.00
5258;DHT22;2651;51.594;9.928;2023-05-10T01:36:51;14.90;1.00
5258;DHT22;2651;51.594;9.928;2023-05-10T01:37:59;14.90;1.00
5258;DHT22;2651;51.594;9.928;2023-05-10T01:42:07;14.80;1.00
5258;DHT22;2651;51.594;9.928;2023-05-10T01:43:11;14.80;1.00
5258;DHT22;2651;51.594;9.928;2023-05-10T01:45:33;14.70;1.00
5258;DHT22;2651;51.594;9.928;2023-05-10T01:46:39;14.80;1.00
5258;DHT22;2651;51.594;9.928;2023-05-10T01:47:43;14.70;1.00
5258;DHT22;2651;51.594;9.928;2023-05-10T01:48:52;14.70;1.00
5258;DHT22;2651;51.594;9.928;2023-05-10T01:49:55;14.70;1.00
5258;DHT22;2651;51.594;9.928;2023-05-10T01:50:58;14.70;1.00
5258;DHT22;2651;51.594;9.928;2023-05-10T01:52:12;14.70;1.00
5258;DHT22;2651;51.594;9.928;2023-05-10T01:53:17;14.70;1.00
5258;DHT22;2651;51.594;9.928;2023-05-10T01:54:21;14.60;1.00
5258;DHT22;2651;51.594;9.928;2023-05-10T01:55:27;14.50;1.00
5258;DHT22;2651;51.594;9.928;2023-05-10T01:56:31;14.50;1.00
5258;DHT22;2651;51.594;9.928;2023-05-10T01:57:37;14.60;1.00
5258;DHT22;2651;51.594;9.928;2023-05-10T01:58:43;14.60;1.00
5258;DHT22;2651;51.594;9.928;2023-05-10T01:59:50;14.60;6.70
5258;DHT22;2651;51.594;9.928;2023-05-10T02:00:53;14.60;24.80
5258;DHT22;2651;51.594;9.928;2023-05-10T02:01:58;14.60;1.00
5258;DHT22;2651;51.594;9.928;2023-05-10T02:03:05;14.60;13.70
5258;DHT22;2651;51.594;9.928;2023-05-10T02:04:08;14.60;1.00
5258;DHT22;2651;51.594;9.928;2023-05-10T02:05:12;14.60;1.00
5258;DHT22;2651;51.594;9.928;2023-05-10T02:06:14;14.50;1.00
5258;DHT22;2651;51.594;9.928;2023-05-10T02:07:18;14.50;1.00
5258;DHT22;2651;51.594;9.928;2023-05-10T02:08:21;14.50;1.00
5258;DHT22;2651;51.594;9.928;2023-05-10T02:09:25;14.50;1.00
5258;DHT22;2651;51.594;9.928;2023-05-10T02:10:29;14.60;1.00
5258;DHT22;2651;51.594;9.928;2023-05-10T02:11:32;14.60;1.00
5258;DHT22;2651;51.594;9.928;2023-05-10T02:12:41;14.70;1.00
5258;DHT22;2651;51.594;9.928;2023-05-10T02:13:43;14.70;1.00
5258;DHT22;2651;51.594;9.928;2023-05-10T02:14:46;14.70;1.00
5258;DHT22;2651;51.594;9.928;2023-05-10T02:15:49;14.70;1.00
5258;DHT22;2651;51.594;9.928;2023-05-10T02:16:53;14.70;1.00
5258;DHT22;2651;51.594;9.928;2023-05-10T02:17:58;14.70;1.00
5258;DHT22;2651;51.594;9.928;2023-05-10T02:19:02;14.70;1.00
5258;DHT22;2651;51.594;9.928;2023-05-10T02:20:05;14.80;1.00
5258;DHT22;2651;51.594;9.928;2023-05-10T02:21:08;14.80;1.00
5258;DHT22;2651;51.594;9.928;2023-05-10T02:22:10;14.80;1.00
5258;DHT22;2651;51.594;9.928;2023-05-10T02:23:14;14.80;1.00
5258;DHT22;2651;51.594;9.928;2023-05-10T02:24:18;14.70;1.00
5258;DHT22;2651;51.594;9.928;2023-05-10T02:25:22;14.70;1.00
5258;DHT22;2651;51.594;9.928;2023-05-10T02:26:25;14.70;1.00
5258;DHT22;2651;51.594;9.928;2023-05-10T02:27:27;14.70;1.00
5258;DHT22;2651;51.594;9.928;2023-05-10T02:28:31;14.70;1.00
5258;DHT22;2651;51.594;9.928;2023-05-10T02:29:34;14.70;1.00
5258;DHT22;2651;51.594;9.928;2023-05-10T02:30:37;14.70;1.00
5258;DHT22;2651;51.594;9.928;2023-05-10T02:31:39;14.80;1.00
5258;DHT22;2651;51.594;9.928;2023-05-10T02:32:45;14.70;1.00
5258;DHT22;2651;51.594;9.928;2023-05-10T02:33:49;14.80;52.30
5258;DHT22;2651;51.594;9.928;2023-05-10T02:34:52;14.80;1.00
5258;DHT22;2651;51.594;9.928;2023-05-10T02:35:54;14.70;1.00
5258;DHT22;2651;51.594;9.928;2023-05-10T02:36:57;14.80;1.00
5258;DHT22;2651;51.594;9.928;2023-05-10T02:38:01;14.80;1.00
5258;DHT22;2651;51.594;9.928;2023-05-10T02:39:03;14.70;1.00
5258;DHT22;2651;51.594;9.928;2023-05-10T02:40:06;14.80;1.00
5258;DHT22;2651;51.594;9.928;2023-05-10T02:41:09;14.70;1.00
5258;DHT22;2651;51.594;9.928;2023-05-10T02:42:16;14.80;1.00
5258;DHT22;2651;51.594;9.928;2023-05-10T02:43:19;14.80;1.00
5258;DHT22;2651;51.594;9.928;2023-05-10T02:44:25;14.80;1.00
5258;DHT22;2651;51.594;9.928;2023-05-10T02:45:30;14.80;1.00
5258;DHT22;2651;51.594;9.928;2023-05-10T02:46:32;14.70;1.00
5258;DHT22;2651;51.594;9.928;2023-05-10T02:47:34;14.70;1.00
5258;DHT22;2651;51.594;9.928;2023-05-10T02:48:36;14.60;1.00
5258;DHT22;2651;51.594;9.928;2023-05-10T02:49:39;14.50;1.00
5258;DHT22;2651;51.594;9.928;2023-05-10T02:50:44;14.40;5.90
5258;DHT22;2651;51.594;9.928;2023-05-10T02:51:50;14.40;22.10
5258;DHT22;2651;51.594;9.928;2023-05-10T02:52:56;14.40;28.30
5258;DHT22;2651;51.594;9.928;2023-05-10T02:54:01;14.40;99.90
5258;DHT22;2651;51.594;9.928;2023-05-10T02:55:05;14.50;99.90
5258;DHT22;2651;51.594;9.928;2023-05-10T02:56:19;14.50;99.90
5258;DHT22;2651;51.594;9.928;2023-05-10T02:57:28;14.50;99.90
5258;DHT22;2651;51.594;9.928;2023-05-10T02:58:33;14.60;99.90
5258;DHT22;2651;51.594;9.928;2023-05-10T02:59:34;14.60;99.90
5258;DHT22;2651;51.594;9.928;2023-05-10T03:00:36;14.70;99.90
5258;DHT22;2651;51.594;9.928;2023-05-10T03:01:38;14.70;99.90
5258;DHT22;2651;51.594;9.928;2023-05-10T03:02:40;14.60;99.90
5258;DHT22;2651;51.594;9.928;2023-05-10T03:03:41;14.70;99.90
5258;DHT22;2651;51.594;9.928;2023-05-10T03:04:43;14.70;99.90
5258;DHT22;2651;51.594;9.928;2023-05-10T03:05:45;14.70;99.90
5258;DHT22;2651;51.594;9.928;2023-05-10T03:06:47;14.70;99.90
5258;DHT22;2651;51.594;9.928;2023-05-10T03:07:50;14.80;99.90
5258;DHT22;2651;51.594;9.928;2023-05-10T03:08:52;14.80;99.90
5258;DHT22;2651;51.594;9.928;2023-05-10T03:09:53;14.80;99.90
5258;DHT22;2651;51.594;9.928;2023-05-10T03:12:26;14.80;99.90
5258;DHT22;2651;51.594;9.928;2023-05-10T03:13:44;14.70;99.90
5258;DHT22;2651;51.594;9.928;2023-05-10T03:15:00;14.70;99.90
5258;DHT22;2651;51.594;9.928;2023-05-10T03:16:15;14.60;99.90
5258;DHT22;2651;51.594;9.928;2023-05-10T03:17:47;14.60;99.90
5258;DHT22;2651;51.594;9.928;2023-05-10T03:19:00;14.60;99.90
5258;DHT22;2651;51.594;9.928;2023-05-10T03:20:10;14.60;99.90
5258;DHT22;2651;51.594;9.928;2023-05-10T03:21:13;14.60;1.00
5258;DHT22;2651;51.594;9.928;2023-05-10T03:22:34;14.60;1.00
5258;DHT22;2651;51.594;9.928;2023-05-10T03:23:46;14.60;1.00
5258;DHT22;2651;51.594;9.928;2023-05-10T03:24:49;14.60;1.00
5258;DHT22;2651;51.594;9.928;2023-05-10T03:25:53;14.60;1.00
5258;DHT22;2651;51.594;9.928;2023-05-10T03:26:56;14.60;1.00
5258;DHT22;2651;51.594;9.928;2023-05-10T03:28:01;14.60;1.00
5258;DHT22;2651;51.594;9.928;2023-05-10T03:29:05;14.60;1.00
5258;DHT22;2651;51.594;9.928;2023-05-10T03:30:08;14.50;1.00
5258;DHT22;2651;51.594;9.928;2023-05-10T03:31:12;14.60;1.00
5258;DHT22;2651;51.594;9.928;2023-05-10T03:32:14;14.60;1.00
5258;DHT22;2651;51.594;9.928;2023-05-10T03:33:15;14.60;95.20
5258;DHT22;2651;51.594;9.928;2023-05-10T03:34:23;14.50;1.00
5258;DHT22;2651;51.594;9.928;2023-05-10T03:35:25;14.50;27.10
5258;DHT22;2651;51.594;9.928;2023-05-10T03:36:27;14.60;99.90
5258;DHT22;2651;51.594;9.928;2023-05-10T03:37:28;14.50;99.90
5258;DHT22;2651;51.594;9.928;2023-05-10T03:38:30;14.40;99.90
5258;DHT22;2651;51.594;9.928;2023-05-10T03:39:32;14.40;99.90
5258;DHT22;2651;51.594;9.928;2023-05-10T03:40:33;14.30;99.90
5258;DHT22;2651;51.594;9.928;2023-05-10T03:41:35;14.30;99.90
5258;DHT22;2651;51.594;9.928;2023-05-10T03:42:36;14.30;1.00
5258;DHT22;2651;51.594;9.928;2023-05-10T03:43:38;14.30;1.00
5258;DHT22;2651;51.594;9.928;2023-05-10T03:44:40;14.20;1.00
5258;DHT22;2651;51.594;9.928;2023-05-10T03:45:42;14.20;1.00
5258;DHT22;2651;51.594;9.928;2023-05-10T03:46:43;14.20;99.90
5258;DHT22;2651;51.594;9.928;2023-05-10T03:47:45;14.10;99.90
5258;DHT22;2651;51.594;9.928;2023-05-10T03:48:46;14.10;99.90
5258;DHT22;2651;51.594;9.928;2023-05-10T03:49:48;14.00;99.90
5258;DHT22;2651;51.594;9.928;2023-05-10T03:50:50;14.10;1.00
5258;DHT22;2651;51.594;9.928;2023-05-10T03:51:51;14.00;99.90
5258;DHT22;2651;51.594;9.928;2023-05-10T03:52:53;13.90;1.00
5258;DHT22;2651;51.594;9.928;2023-05-10T03:53:55;13.80;1.00
5258;DHT22;2651;51.594;9.928;2023-05-10T03:54:57;13.80;1.00
5258;DHT22;2651;51.594;9.928;2023-05-10T03:55:58;13.80;1.00
5258;DHT22;2651;51.594;9.928;2023-05-10T03:57:00;13.80;1.00
5258;DHT22;2651;51.594;9.928;2023-05-10T03:58:02;13.80;99.90
5258;DHT22;2651;51.594;9.928;2023-05-10T03:59:03;13.80;1.00
5258;DHT22;2651;51.594;9.928;2023-05-10T04:00:09;13.70;1.00
5258;DHT22;2651;51.594;9.928;2023-05-10T04:01:11;13.70;1.00
5258;DHT22;2651;51.594;9.928;2023-05-10T04:02:13;13.60;1.00
5258;DHT22;2651;51.594;9.928;2023-05-10T04:03:14;13.60;99.90
5258;DHT22;2651;51.594;9.928;2023-05-10T04:04:16;13.60;1.00
5258;DHT22;2651;51.594;9.928;2023-05-10T04:05:20;13.60;1.00
5258;DHT22;2651;51.594;9.928;2023-05-10T04:06:21;13.50;99.90
5258;DHT22;2651;51.594;9.928;2023-05-10T04:07:23;13.50;99.90
5258;DHT22;2651;51.594;9.928;2023-05-10T04:08:25;13.60;1.00
5258;DHT22;2651;51.594;9.928;2023-05-10T04:09:27;13.60;99.90
5258;DHT22;2651;51.594;9.928;2023-05-10T04:10:28;13.70;99.90
5258;DHT22;2651;51.594;9.928;2023-05-10T04:11:30;13.70;1.00
5258;DHT22;2651;51.594;9.928;2023-05-10T04:12:32;13.70;1.00
5258;DHT22;2651;51.594;9.928;2023-05-10T04:13:33;13.60;1.00
5258;DHT22;2651;51.594;9.928;2023-05-10T04:14:35;13.60;1.00
5258;DHT22;2651;51.594;9.928;2023-05-10T04:15:37;13.50;67.10
5258;DHT22;2651;51.594;9.928;2023-05-10T04:16:38;13.50;56.80
5258;DHT22;2651;51.594;9.928;2023-05-10T04:17:40;13.50;1.00
5258;DHT22;2651;51.594;9.928;2023-05-10T04:18:42;13.50;84.80
5258;DHT22;2651;51.594;9.928;2023-05-10T04:19:43;13.50;99.90
5258;DHT22;2651;51.594;9.928;2023-05-10T04:20:45;13.50;99.90
5258;DHT22;2651;51.594;9.928;2023-05-10T04:21:46;13.60;99.90
5258;DHT22;2651;51.594;9.928;2023-05-10T04:22:48;13.60;95.10
5258;DHT22;2651;51.594;9.928;2023-05-10T04:23:50;13.70;99.90
5258;DHT22;2651;51.594;9.928;2023-05-10T04:24:51;13.70;77.20
5258;DHT22;2651;51.594;9.928;2023-05-10T04:25:59;13.70;6.20
5258;DHT22;2651;51.594;9.928;2023-05-10T04:27:01;13.60;1.00
5258;DHT22;2651;51.594;9.928;2023-05-10T04:28:03;13.60;1.00
5258;DHT22;2651;51.594;9.928;2023-05-10T04:29:05;13.60;1.00
5258;DHT22;2651;51.594;9.928;2023-05-10T04:30:07;13.70;73.60
5258;DHT22;2651;51.594;9.928;2023-05-10T04:31:09;13.70;70.80
5258;DHT22;2651;51.594;9.928;2023-05-10T04:32:11;13.70;46.30
5258;DHT22;2651;51.594;9.928;2023-05-10T04:33:13;13.70;16.80
5258;DHT22;2651;51.594;9.928;2023-05-10T04:34:15;13.70;1.00
5258;DHT22;2651;51.594;9.928;2023-05-10T04:35:17;13.70;99.90
5258;DHT22;2651;51.594;9.928;2023-05-10T04:36:19;13.70;99.90
5258;DHT22;2651;51.594;9.928;2023-05-10T04:37:20;13.60;9.20
5258;DHT22;2651;51.594;9.928;2023-05-10T04:38:24;13.60;1.00
5258;DHT22;2651;51.594;9.928;2023-05-10T04:39:26;13.70;1.00
5258;DHT22;2651;51.594;9.928;2023-05-10T04:40:27;13.70;99.90
5258;DHT22;2651;51.594;9.928;2023-05-10T04:41:29;13.70;99.90
5258;DHT22;2651;51.594;9.928;2023-05-10T04:42:31;13.80;99.90
5258;DHT22;2651;51.594;9.928;2023-05-10T04:43:32;13.80;50.10
5258;DHT22;2651;51.594;9.928;2023-05-10T04:44:34;13.80;34.30
5258;DHT22;2651;51.594;9.928;2023-05-10T04:45:36;13.80;99.90
5258;DHT22;2651;51.594;9.928;2023-05-10T04:46:37;13.80;99.90
5258;DHT22;2651;51.594;9.928;2023-05-10T04:47:39;13.80;99.90
5258;DHT22;2651;51.594;9.928;2023-05-10T04:48:41;13.90;99.90
5258;DHT22;2651;51.594;9.928;2023-05-10T04:49:42;13.90;99.90
5258;DHT22;2651;51.594;9.928;2023-05-10T04:50:44;13.90;99.90
5258;DHT22;2651;51.594;9.928;2023-05-10T04:51:46;13.80;99.90
5258;DHT22;2651;51.594;9.928;2023-05-10T04:52:47;13.70;99.90
5258;DHT22;2651;51.594;9.928;2023-05-10T04:53:49;13.60;99.90
5258;DHT22;2651;51.594;9.928;2023-05-10T04:55:05;13.50;99.90
5258;DHT22;2651;51.594;9.928;2023-05-10T04:56:09;13.40;99.90
5258;DHT22;2651;51.594;9.928;2023-05-10T04:57:10;13.30;99.90
5258;DHT22;2651;51.594;9.928;2023-05-10T04:58:12;13.20;99.90
5258;DHT22;2651;51.594;9.928;2023-05-10T04:59:14;13.30;99.90
5258;DHT22;2651;51.594;9.928;2023-05-10T05:00:16;13.20;99.90
5258;DHT22;2651;51.594;9.928;2023-05-10T05:01:18;13.20;99.90
5258;DHT22;2651;51.594;9.928;2023-05-10T05:02:20;13.20;99.90
5258;DHT22;2651;51.594;9.928;2023-05-10T05:03:21;13.30;99.90
5258;DHT22;2651;51.594;9.928;2023-05-10T05:04:23;13.30;99.90
5258;DHT22;2651;51.594;9.928;2023-05-10T05:05:25;13.40;99.90
5258;DHT22;2651;51.594;9.928;2023-05-10T05:06:27;13.40;99.90
5258;DHT22;2651;51.594;9.928;2023-05-10T05:07:28;13.40;99.90
5258;DHT22;2651;51.594;9.928;2023-05-10T05:08:31;13.50;99.90
5258;DHT22;2651;51.594;9.928;2023-05-10T05:09:33;13.60;99.90
5258;DHT22;2651;51.594;9.928;2023-05-10T05:10:35;13.60;99.90
5258;DHT22;2651;51.594;9.928;2023-05-10T05:11:36;13.70;99.90
5258;DHT22;2651;51.594;9.928;2023-05-10T05:12:38;13.70;99.90
5258;DHT22;2651;51.594;9.928;2023-05-10T05:13:40;13.70;99.90
5258;DHT22;2651;51.594;9.928;2023-05-10T05:14:41;13.70;99.90
5258;DHT22;2651;51.594;9.928;2023-05-10T05:15:43;13.70;99.90
5258;DHT22;2651;51.594;9.928;2023-05-10T05:16:45;13.70;99.90
5258;DHT22;2651;51.594;9.928;2023-05-10T05:17:46;13.80;99.90
5258;DHT22;2651;51.594;9.928;2023-05-10T05:18:48;13.70;99.90
5258;DHT22;2651;51.594;9.928;2023-05-10T05:19:50;13.70;99.90
5258;DHT22;2651;51.594;9.928;2023-05-10T05:20:51;13.60;99.90
5258;DHT22;2651;51.594;9.928;2023-05-10T05:21:53;13.70;99.90
5258;DHT22;2651;51.594;9.928;2023-05-10T05:22:55;13.70;99.90
5258;DHT22;2651;51.594;9.928;2023-05-10T05:23:56;13.70;99.90
5258;DHT22;2651;51.594;9.928;2023-05-10T05:24:58;13.80;99.90
5258;DHT22;2651;51.594;9.928;2023-05-10T05:25:59;13.80;99.90
5258;DHT22;2651;51.594;9.928;2023-05-10T05:27:01;13.70;99.90
5258;DHT22;2651;51.594;9.928;2023-05-10T05:28:03;13.70;99.90
5258;DHT22;2651;51.594;9.928;2023-05-10T05:29:05;13.70;99.90
5258;DHT22;2651;51.594;9.928;2023-05-10T05:30:07;13.70;99.90
5258;DHT22;2651;51.594;9.928;2023-05-10T05:31:09;13.80;99.90
5258;DHT22;2651;51.594;9.928;2023-05-10T05:32:10;13.80;99.90
5258;DHT22;2651;51.594;9.928;2023-05-10T05:33:15;13.90;99.90
5258;DHT22;2651;51.594;9.928;2023-05-10T05:34:17;13.90;99.90
5258;DHT22;2651;51.594;9.928;2023-05-10T05:35:18;13.90;99.90
5258;DHT22;2651;51.594;9.928;2023-05-10T05:36:20;13.90;99.90
5258;DHT22;2651;51.594;9.928;2023-05-10T05:37:22;14.00;99.90
5258;DHT22;2651;51.594;9.928;2023-05-10T05:38:24;14.00;99.90
5258;DHT22;2651;51.594;9.928;2023-05-10T05:39:25;14.00;99.90
5258;DHT22;2651;51.594;9.928;2023-05-10T05:40:27;14.00;99.90
5258;DHT22;2651;51.594;9.928;2023-05-10T05:41:28;14.00;99.90
5258;DHT22;2651;51.594;9.928;2023-05-10T05:42:31;14.00;99.90
5258;DHT22;2651;51.594;9.928;2023-05-10T05:43:32;14.00;99.90
5258;DHT22;2651;51.594;9.928;2023-05-10T05:44:37;14.00;99.90
5258;DHT22;2651;51.594;9.928;2023-05-10T05:45:38;14.00;99.90
5258;DHT22;2651;51.594;9.928;2023-05-10T05:46:40;14.00;99.90
5258;DHT22;2651;51.594;9.928;2023-05-10T05:47:42;14.00;99.90
5258;DHT22;2651;51.594;9.928;2023-05-10T05:48:43;14.10;99.90
5258;DHT22;2651;51.594;9.928;2023-05-10T05:49:45;14.10;99.90
5258;DHT22;2651;51.594;9.928;2023-05-10T05:50:47;14.10;99.90
5258;DHT22;2651;51.594;9.928;2023-05-10T05:51:48;14.20;99.90
5258;DHT22;2651;51.594;9.928;2023-05-10T05:52:51;14.20;99.90
5258;DHT22;2651;51.594;9.928;2023-05-10T05:53:53;14.30;99.90
5258;DHT22;2651;51.594;9.928;2023-05-10T05:54:54;14.30;99.90
5258;DHT22;2651;51.594;9.928;2023-05-10T05:55:58;14.20;99.90
5258;DHT22;2651;51.594;9.928;2023-05-10T05:57:00;14.20;99.90
5258;DHT22;2651;51.594;9.928;2023-05-10T05:58:02;14.20;99.90
5258;DHT22;2651;51.594;9.928;2023-05-10T05:59:04;14.20;99.90
5258;DHT22;2651;51.594;9.928;2023-05-10T06:00:06;14.20;99.90
5258;DHT22;2651;51.594;9.928;2023-05-10T06:01:08;14.30;99.90
5258;DHT22;2651;51.594;9.928;2023-05-10T06:02:10;14.20;99.90
5258;DHT22;2651;51.594;9.928;2023-05-10T06:03:12;14.20;99.90
5258;DHT22;2651;51.594;9.928;2023-05-10T06:04:14;14.20;99.90
5258;DHT22;2651;51.594;9.928;2023-05-10T06:05:16;14.20;99.90
5258;DHT22;2651;51.594;9.928;2023-05-10T06:06:18;14.30;99.90
5258;DHT22;2651;51.594;9.928;2023-05-10T06:07:19;14.30;99.90
5258;DHT22;2651;51.594;9.928;2023-05-10T06:08:21;14.20;99.90
5258;DHT22;2651;51.594;9.928;2023-05-10T06:09:23;14.30;99.90
5258;DHT22;2651;51.594;9.928;2023-05-10T06:10:26;14.20;99.90
5258;DHT22;2651;51.594;9.928;2023-05-10T06:11:28;14.20;99.90
5258;DHT22;2651;51.594;9.928;2023-05-10T06:12:29;14.20;99.90
5258;DHT22;2651;51.594;9.928;2023-05-10T06:13:31;14.20;99.90
5258;DHT22;2651;51.594;9.928;2023-05-10T06:14:34;14.10;99.90
5258;DHT22;2651;51.594;9.928;2023-05-10T06:15:36;14.20;99.90
5258;DHT22;2651;51.594;9.928;2023-05-10T06:16:37;14.20;99.90
5258;DHT22;2651;51.594;9.928;2023-05-10T06:17:39;14.30;99.90
5258;DHT22;2651;51.594;9.928;2023-05-10T06:18:41;14.30;99.90
5258;DHT22;2651;51.594;9.928;2023-05-10T06:19:43;14.20;99.90
5258;DHT22;2651;51.594;9.928;2023-05-10T06:20:44;14.10;99.90
5258;DHT22;2651;51.594;9.928;2023-05-10T06:21:46;14.10;99.90
5258;DHT22;2651;51.594;9.928;2023-05-10T06:22:48;14.10;99.90
5258;DHT22;2651;51.594;9.928;2023-05-10T06:23:49;14.10;99.90
5258;DHT22;2651;51.594;9.928;2023-05-10T06:24:51;14.20;99.90
5258;DHT22;2651;51.594;9.928;2023-05-10T06:25:53;14.10;99.90
5258;DHT22;2651;51.594;9.928;2023-05-10T06:26:54;14.20;99.90
5258;DHT22;2651;51.594;9.928;2023-05-10T06:27:56;14.20;99.90
5258;DHT22;2651;51.594;9.928;2023-05-10T06:28:59;14.10;99.90
5258;DHT22;2651;51.594;9.928;2023-05-10T06:30:01;14.20;99.90
5258;DHT22;2651;51.594;9.928;2023-05-10T06:31:13;14.20;99.90
5258;DHT22;2651;51.594;9.928;2023-05-10T06:32:15;14.30;99.90
5258;DHT22;2651;51.594;9.928;2023-05-10T06:33:16;14.30;99.90
5258;DHT22;2651;51.594;9.928;2023-05-10T06:34:18;14.20;99.90
5258;DHT22;2651;51.594;9.928;2023-05-10T06:35:20;14.20;99.90
5258;DHT22;2651;51.594;9.928;2023-05-10T06:36:21;14.20;99.90
5258;DHT22;2651;51.594;9.928;2023-05-10T06:37:24;14.20;99.90
5258;DHT22;2651;51.594;9.928;2023-05-10T06:38:26;14.20;99.90
5258;DHT22;2651;51.594;9.928;2023-05-10T06:39:27;14.20;99.90
5258;DHT22;2651;51.594;9.928;2023-05-10T06:40:30;14.20;99.90
5258;DHT22;2651;51.594;9.928;2023-05-10T06:41:32;14.20;99.90
5258;DHT22;2651;51.594;9.928;2023-05-10T06:42:34;14.30;99.90
5258;DHT22;2651;51.594;9.928;2023-05-10T06:43:35;14.20;99.90
5258;DHT22;2651;51.594;9.928;2023-05-10T06:44:38;14.20;99.90
5258;DHT22;2651;51.594;9.928;2023-05-10T06:45:40;14.20;99.90
5258;DHT22;2651;51.594;9.928;2023-05-10T06:46:42;14.30;99.90
5258;DHT22;2651;51.594;9.928;2023-05-10T06:47:44;14.30;99.90
5258;DHT22;2651;51.594;9.928;2023-05-10T06:48:45;14.30;99.90
5258;DHT22;2651;51.594;9.928;2023-05-10T06:49:47;14.40;99.90
5258;DHT22;2651;51.594;9.928;2023-05-10T06:50:49;14.40;99.90
5258;DHT22;2651;51.594;9.928;2023-05-10T06:51:50;14.40;99.90
5258;DHT22;2651;51.594;9.928;2023-05-10T06:52:53;14.40;99.90
5258;DHT22;2651;51.594;9.928;2023-05-10T06:53:54;14.50;99.90
5258;DHT22;2651;51.594;9.928;2023-05-10T06:54:56;14.60;99.90
5258;DHT22;2651;51.594;9.928;2023-05-10T06:55:58;14.60;99.90
5258;DHT22;2651;51.594;9.928;2023-05-10T06:57:00;14.70;99.90
5258;DHT22;2651;51.594;9.928;2023-05-10T06:58:07;14.80;99.90
5258;DHT22;2651;51.594;9.928;2023-05-10T06:59:09;14.80;99.90
5258;DHT22;2651;51.594;9.928;2023-05-10T07:00:11;14.90;99.90
5258;DHT22;2651;51.594;9.928;2023-05-10T07:01:13;14.90;99.90
5258;DHT22;2651;51.594;9.928;2023-05-10T07:02:14;14.90;99.90
5258;DHT22;2651;51.594;9.928;2023-05-10T07:03:16;14.90;99.90
5258;DHT22;2651;51.594;9.928;2023-05-10T07:04:18;14.90;99.90
5258;DHT22;2651;51.594;9.928;2023-05-10T07:05:20;14.90;99.90
5258;DHT22;2651;51.594;9.928;2023-05-10T07:06:22;14.90;99.90